Time;durP1;ratioP1;P1;durP2;ratioP2;P2;SDS_P1;SDS_P2;PMS_P1;PMS_P2;Temp;Humidity;BMP_temperature;BMP_pressure;BME280_temperature;BME280_humidity;BME280_pressure;Samples;Min_cycle;Max_cycle;Signal;HPM_P1;HPM_P2
2024/02/22 00:02:28;;;;;;;5.13;2.30;;;;;;;10.40;100.00;96513.03;5016957;28;20954;-80
2024/02/22 00:04:54;;;;;;;4.30;2.60;;;;;;;10.24;100.00;96487.69;5016850;28;20492;-81
2024/02/22 00:07:20;;;;;;;6.38;1.90;;;;;;;10.22;100.00;96479.25;5019042;28;20474;-81
2024/02/22 00:09:46;;;;;;;4.03;2.10;;;;;;;10.30;100.00;96464.69;5027455;28;20428;-79
2024/02/22 00:12:12;;;;;;;4.47;1.90;;;;;;;10.39;100.00;96463.81;5024503;28;20508;-81
2024/02/22 00:14:39;;;;;;;3.65;2.22;;;;;;;10.29;100.00;96466.53;5017258;28;20389;-82
2024/02/22 00:17:06;;;;;;;3.95;2.00;;;;;;;10.29;100.00;96452.50;5017486;28;20463;-81
2024/02/22 00:19:33;;;;;;;3.15;2.05;;;;;;;10.02;100.00;96453.63;5016636;28;20492;-81
2024/02/22 00:21:59;;;;;;;3.07;2.00;;;;;;;9.98;100.00;96451.81;5016952;28;20409;-81
2024/02/22 00:24:25;;;;;;;3.15;2.13;;;;;;;10.02;100.00;96429.84;5017284;28;20482;-81
2024/02/22 00:26:52;;;;;;;3.60;2.20;;;;;;;9.86;100.00;96433.59;5019142;28;20897;-81
2024/02/22 00:29:18;;;;;;;4.75;2.20;;;;;;;9.82;100.00;96424.63;5019258;28;20488;-81
2024/02/22 00:31:44;;;;;;;4.65;2.08;;;;;;;9.83;100.00;96434.13;5018603;28;20427;-80
2024/02/22 00:34:10;;;;;;;2.87;2.00;;;;;;;9.91;100.00;96425.66;5018443;28;20817;-83
2024/02/22 00:36:42;;;;;;;3.22;1.98;;;;;;;9.96;100.00;96417.69;5018316;28;20400;-81
2024/02/22 00:39:09;;;;;;;4.22;2.10;;;;;;;9.86;100.00;96406.34;5016782;28;20400;-81
2024/02/22 00:41:35;;;;;;;5.18;2.20;;;;;;;9.94;100.00;96405.81;5016880;28;20405;-81
2024/02/22 00:44:04;;;;;;;4.43;2.20;;;;;;;9.85;100.00;96402.16;5016860;28;20407;-81
2024/02/22 00:46:31;;;;;;;5.67;2.10;;;;;;;9.90;100.00;96389.72;5017037;28;20472;-80
2024/02/22 00:48:57;;;;;;;3.28;2.13;;;;;;;9.77;100.00;96382.38;5017712;28;20397;-81
2024/02/22 00:51:23;;;;;;;5.68;2.00;;;;;;;9.62;100.00;96387.69;5017798;28;20424;-81
2024/02/22 00:53:50;;;;;;;5.60;1.88;;;;;;;9.71;100.00;96376.28;5018802;28;20401;-81
2024/02/22 00:56:17;;;;;;;4.40;2.00;;;;;;;9.53;100.00;96361.03;5029985;28;20882;-78
2024/02/22 00:58:43;;;;;;;4.25;2.25;;;;;;;9.57;100.00;96350.72;5031429;28;20401;-79
2024/02/22 01:01:09;;;;;;;2.53;1.90;;;;;;;9.66;100.00;96357.03;5020215;28;20454;-80
2024/02/22 01:03:36;;;;;;;6.18;2.50;;;;;;;9.77;100.00;96358.56;5016287;28;20401;-81
2024/02/22 01:06:02;;;;;;;5.80;1.98;;;;;;;9.89;100.00;96352.97;5016909;28;20404;-81
2024/02/22 01:08:28;;;;;;;10.10;2.35;;;;;;;9.70;100.00;96326.34;5016477;28;20393;-80
2024/02/22 01:10:55;;;;;;;3.28;1.90;;;;;;;9.60;100.00;96329.84;5016387;28;20868;-79
2024/02/22 01:13:22;;;;;;;3.63;2.10;;;;;;;9.53;100.00;96328.53;5016423;28;20397;-81
2024/02/22 01:15:48;;;;;;;4.28;2.20;;;;;;;9.45;100.00;96318.53;5016698;28;20404;-81
2024/02/22 01:18:14;;;;;;;3.38;1.77;;;;;;;9.47;100.00;96321.69;5016109;28;20413;-81
2024/02/22 01:20:41;;;;;;;2.90;2.00;;;;;;;9.65;100.00;96319.25;5016179;28;20440;-80
2024/02/22 01:23:07;;;;;;;3.73;1.97;;;;;;;9.58;100.00;96304.75;5016394;28;20412;-79
2024/02/22 01:25:33;;;;;;;4.03;1.90;;;;;;;9.63;100.00;96308.16;5016225;28;20555;-80
2024/02/22 01:28:00;;;;;;;2.97;1.80;;;;;;;9.70;100.00;96305.19;5016889;28;20408;-81
2024/02/22 01:30:27;;;;;;;3.80;1.95;;;;;;;9.58;100.00;96294.16;5016229;28;20429;-80
2024/02/22 01:32:53;;;;;;;2.95;2.00;;;;;;;9.42;100.00;96288.16;5016276;28;20405;-81
2024/02/22 01:35:19;;;;;;;5.05;2.22;;;;;;;9.51;100.00;96294.47;5017110;28;20396;-81
2024/02/22 01:37:45;;;;;;;3.30;2.00;;;;;;;9.48;100.00;96281.78;5019933;28;20428;-80
2024/02/22 01:40:12;;;;;;;4.70;2.10;;;;;;;9.44;100.00;96274.69;5020813;28;20401;-81
2024/02/22 01:42:40;;;;;;;4.57;2.13;;;;;;;9.41;100.00;96265.44;5019853;28;20447;-81
2024/02/22 01:45:08;;;;;;;3.78;2.15;;;;;;;9.32;100.00;96259.16;5017198;28;20860;-82
2024/02/22 01:47:35;;;;;;;3.47;2.00;;;;;;;9.39;100.00;96245.66;5019588;28;20448;-81
2024/02/22 01:50:02;;;;;;;2.47;1.90;;;;;;;9.38;100.00;96247.50;5019163;28;20487;-81
2024/02/22 01:52:30;;;;;;;4.30;2.22;;;;;;;9.27;100.00;96235.41;5019041;28;20407;-81
2024/02/22 01:54:56;;;;;;;2.97;1.98;;;;;;;9.26;100.00;96257.56;5018882;28;20908;-81
2024/02/22 01:57:22;;;;;;;2.47;1.95;;;;;;;9.25;100.00;96240.94;5016942;28;20882;-79
2024/02/22 01:59:49;;;;;;;3.83;2.10;;;;;;;9.29;100.00;96231.44;5017725;28;20415;-81
2024/02/22 02:02:16;;;;;;;4.43;2.08;;;;;;;9.11;100.00;96237.31;5017768;28;20416;-82
2024/02/22 02:04:43;;;;;;;3.13;1.97;;;;;;;9.16;100.00;96231.22;5017020;28;20451;-79
2024/02/22 02:07:10;;;;;;;3.60;1.98;;;;;;;9.11;100.00;96223.31;5016352;28;20500;-81
2024/02/22 02:09:36;;;;;;;3.60;2.00;;;;;;;9.09;100.00;96218.31;5016567;28;20802;-81
2024/02/22 02:12:03;;;;;;;6.40;2.10;;;;;;;9.26;100.00;96205.56;5016560;28;20436;-80
2024/02/22 02:14:29;;;;;;;2.90;1.90;;;;;;;9.26;100.00;96226.69;5016860;28;20405;-81
2024/02/22 02:16:55;;;;;;;3.47;2.10;;;;;;;9.21;100.00;96197.66;5016449;28;20396;-80
2024/02/22 02:19:27;;;;;;;3.28;1.90;;;;;;;9.18;100.00;96192.91;5016942;28;20404;-81
2024/02/22 02:22:07;;;;;;;4.60;2.58;;;;;;;9.07;100.00;96198.53;5016288;28;20794;-82
2024/02/22 02:24:40;;;;;;;3.17;1.60;;;;;;;9.06;100.00;96189.81;5014802;28;20894;-78
2024/02/22 02:27:07;;;;;;;3.95;1.92;;;;;;;8.98;100.00;96179.03;5013336;28;20393;-80
2024/02/22 02:29:33;;;;;;;2.80;1.63;;;;;;;9.06;100.00;96184.53;5016714;28;20898;-80
2024/02/22 02:32:00;;;;;;;3.15;1.60;;;;;;;8.98;100.00;96182.44;5016287;28;20405;-80
2024/02/22 02:34:26;;;;;;;2.80;1.70;;;;;;;9.05;100.00;96175.03;5017088;28;20407;-78
2024/02/22 02:36:52;;;;;;;1.75;1.60;;;;;;;9.06;100.00;96167.91;5017095;28;20397;-81
2024/02/22 02:39:18;;;;;;;2.75;1.90;;;;;;;9.16;100.00;96170.50;5016929;28;20409;-81
2024/02/22 02:41:44;;;;;;;2.08;1.70;;;;;;;9.08;100.00;96176.34;5016423;28;20405;-81
2024/02/22 02:44:12;;;;;;;2.05;1.80;;;;;;;9.00;100.00;96169.00;5016921;28;20397;-79
2024/02/22 02:46:39;;;;;;;2.72;1.83;;;;;;;9.11;100.00;96167.88;5015734;28;20813;-79
2024/02/22 02:49:05;;;;;;;1.75;1.58;;;;;;;9.03;100.00;96155.25;5016067;28;20420;-79
2024/02/22 02:51:32;;;;;;;3.13;1.70;;;;;;;8.93;100.00;96180.63;5015340;28;20423;-81
2024/02/22 02:53:58;;;;;;;1.63;1.52;;;;;;;8.93;100.00;96148.19;5015678;28;20401;-81
2024/02/22 02:56:24;;;;;;;2.58;1.80;;;;;;;8.87;100.00;96128.16;5015990;28;20397;-80
2024/02/22 02:58:50;;;;;;;1.73;1.50;;;;;;;8.88;100.00;96132.34;5016717;28;20913;-80
2024/02/22 03:01:18;;;;;;;1.95;1.60;;;;;;;8.80;100.00;96133.69;5017054;28;20400;-81
2024/02/22 03:03:44;;;;;;;2.90;1.60;;;;;;;8.87;100.00;96136.06;5017665;28;20404;-81
2024/02/22 03:06:10;;;;;;;2.53;1.73;;;;;;;8.91;100.00;96147.66;5016500;28;20875;-81
2024/02/22 03:08:36;;;;;;;2.20;1.48;;;;;;;8.94;100.00;96133.91;5016488;28;20396;-80
2024/02/22 03:11:02;;;;;;;2.17;1.67;;;;;;;8.81;100.00;96130.00;5015996;28;20432;-81
2024/02/22 03:13:28;;;;;;;2.90;1.52;;;;;;;8.68;100.00;96117.38;5016217;28;20404;-81
2024/02/22 03:15:55;;;;;;;3.50;1.60;;;;;;;8.75;100.00;96115.25;5016334;28;20409;-80
2024/02/22 03:18:22;;;;;;;1.60;1.50;;;;;;;8.62;100.00;96115.84;5016179;28;20393;-81
2024/02/22 03:20:48;;;;;;;2.22;1.63;;;;;;;8.63;100.00;96120.06;5008152;28;20523;-80
2024/02/22 03:23:15;;;;;;;1.85;1.70;;;;;;;8.71;100.00;96113.44;5015588;28;20420;-80
2024/02/22 03:25:42;;;;;;;2.42;1.80;;;;;;;8.62;100.00;96107.13;5016163;28;20401;-81
2024/02/22 03:28:12;;;;;;;2.80;1.58;;;;;;;8.54;100.00;96090.81;5015678;28;20404;-82
2024/02/22 03:30:39;;;;;;;1.92;1.73;;;;;;;8.46;100.00;96095.84;5015684;28;20424;-80
2024/02/22 03:33:08;;;;;;;4.30;1.77;;;;;;;8.43;100.00;96091.88;5015337;28;20454;-81
2024/02/22 03:35:36;;;;;;;1.90;1.60;;;;;;;8.37;100.00;96089.53;5015993;28;20794;-82
2024/02/22 03:38:02;;;;;;;4.00;1.65;;;;;;;8.41;100.00;96072.13;5015751;28;20399;-80
2024/02/22 03:40:30;;;;;;;2.63;1.40;;;;;;;8.42;100.00;96081.63;5016071;28;20444;-81
2024/02/22 03:42:57;;;;;;;2.33;1.50;;;;;;;8.51;100.00;96080.78;5015777;28;21110;-80
2024/02/22 03:45:23;;;;;;;2.13;1.65;;;;;;;8.45;100.00;96076.59;5015277;28;20415;-80
2024/02/22 03:47:50;;;;;;;2.60;1.70;;;;;;;8.52;100.00;96079.72;5014196;28;20479;-81
2024/02/22 03:50:16;;;;;;;3.10;1.55;;;;;;;8.44;100.00;96071.59;5015425;28;20427;-80
2024/02/22 03:52:43;;;;;;;2.40;1.85;;;;;;;8.30;100.00;96084.50;5019612;28;21404;-78
2024/02/22 03:55:10;;;;;;;2.30;1.90;;;;;;;8.27;100.00;96073.72;5020892;28;20429;-78
2024/02/22 03:57:37;;;;;;;2.22;1.75;;;;;;;8.38;100.00;96051.56;5016629;28;20459;-80
2024/02/22 04:00:06;;;;;;;2.88;1.75;;;;;;;8.31;100.00;96066.88;5014704;28;20440;-81
2024/02/22 04:02:32;;;;;;;1.90;1.80;;;;;;;8.26;100.00;96072.16;5014191;28;20437;-81
2024/02/22 04:05:00;;;;;;;2.50;1.90;;;;;;;8.04;100.00;96069.84;5013873;28;20404;-81
2024/02/22 04:07:26;;;;;;;2.07;1.70;;;;;;;7.94;100.00;96069.84;5014321;28;20587;-81
2024/02/22 04:09:54;;;;;;;2.25;1.60;;;;;;;7.90;100.00;96063.50;5014930;28;20421;-79
2024/02/22 04:12:20;;;;;;;3.08;1.98;;;;;;;7.86;100.00;96070.38;5015731;28;20409;-81
2024/02/22 04:14:47;;;;;;;2.10;1.67;;;;;;;7.96;100.00;96078.28;5023983;28;20416;-79
2024/02/22 04:17:13;;;;;;;2.50;1.75;;;;;;;7.96;100.00;96079.06;5031026;28;20400;-79
2024/02/22 04:19:39;;;;;;;2.35;1.90;;;;;;;8.14;100.00;96064.53;5022843;28;20526;-81
2024/02/22 04:22:05;;;;;;;4.40;1.90;;;;;;;8.07;100.00;96064.00;5015712;28;20409;-80
2024/02/22 04:24:31;;;;;;;1.83;1.73;;;;;;;7.96;100.00;96059.84;5016252;28;20408;-81
2024/02/22 04:26:59;;;;;;;2.63;1.60;;;;;;;7.97;100.00;96053.50;5016902;28;20401;-81
2024/02/22 04:29:25;;;;;;;2.40;1.70;;;;;;;7.86;100.00;96051.94;5016244;28;20758;-82
2024/02/22 04:31:52;;;;;;;3.40;1.88;;;;;;;7.99;100.00;96051.38;5016613;28;20401;-81
2024/02/22 04:34:18;;;;;;;3.90;1.75;;;;;;;8.02;100.00;96049.00;5016613;28;20692;-80
2024/02/22 04:36:44;;;;;;;2.27;1.73;;;;;;;8.07;100.00;96046.34;5015940;28;20447;-81
2024/02/22 04:39:10;;;;;;;2.13;1.70;;;;;;;7.99;100.00;96041.63;5015943;28;20404;-81
2024/02/22 04:41:37;;;;;;;3.03;1.70;;;;;;;7.93;100.00;96044.53;5015898;28;20408;-81
2024/02/22 04:44:05;;;;;;;4.20;1.70;;;;;;;8.06;100.00;96047.41;5016367;28;20416;-80
2024/02/22 04:46:32;;;;;;;2.63;1.83;;;;;;;8.07;100.00;96041.09;5020223;28;20400;-79
2024/02/22 04:49:01;;;;;;;2.33;1.80;;;;;;;8.05;100.00;96037.91;5016281;28;20431;-81
2024/02/22 04:51:27;;;;;;;3.13;1.80;;;;;;;8.07;100.00;96025.28;5016355;28;20427;-81
2024/02/22 04:53:53;;;;;;;1.70;1.50;;;;;;;8.04;100.00;96014.50;5016072;28;20407;-81
2024/02/22 04:56:19;;;;;;;2.60;1.73;;;;;;;8.01;100.00;96021.06;5017085;28;20431;-81
2024/02/22 04:58:45;;;;;;;1.67;1.58;;;;;;;8.01;100.00;96021.06;5017398;28;20405;-82
2024/02/22 05:01:12;;;;;;;2.38;1.63;;;;;;;8.02;100.00;96011.31;5016383;28;20459;-82
2024/02/22 05:03:40;;;;;;;3.15;1.80;;;;;;;8.06;100.00;96018.41;5031556;28;20395;-80
2024/02/22 05:06:06;;;;;;;2.30;1.63;;;;;;;8.19;100.00;96018.94;5020600;28;20408;-81
2024/02/22 05:08:32;;;;;;;5.75;1.70;;;;;;;8.07;100.00;96020.00;5027684;28;21634;-81
2024/02/22 05:10:58;;;;;;;3.13;1.70;;;;;;;7.93;100.00;96016.34;5016794;28;20782;-80
2024/02/22 05:13:25;;;;;;;2.20;1.55;;;;;;;7.91;100.00;96010.56;5020419;28;20392;-80
2024/02/22 05:15:51;;;;;;;3.42;1.80;;;;;;;7.88;100.00;96016.38;5022649;28;20393;-81
2024/02/22 05:18:18;;;;;;;2.38;1.63;;;;;;;7.78;100.00;96017.19;5033922;28;20778;-82
2024/02/22 05:20:44;;;;;;;5.53;1.73;;;;;;;7.68;100.00;96004.00;5025173;28;20409;-82
2024/02/22 05:23:10;;;;;;;2.95;1.85;;;;;;;7.78;100.00;96005.84;5032882;28;20855;-80
2024/02/22 05:25:38;;;;;;;2.60;1.65;;;;;;;7.70;100.00;96001.91;5026587;28;20911;-81
2024/02/22 05:28:05;;;;;;;2.38;1.77;;;;;;;7.70;100.00;95996.66;5033334;28;20407;-80
2024/02/22 05:30:31;;;;;;;2.22;1.85;;;;;;;7.64;100.00;95997.72;5020846;28;20416;-81
2024/02/22 05:32:57;;;;;;;3.15;1.85;;;;;;;7.56;100.00;95997.47;5021953;28;20426;-81
2024/02/22 05:35:25;;;;;;;8.25;1.90;;;;;;;7.58;100.00;95992.72;5036296;28;20898;-80
2024/02/22 05:37:51;;;;;;;1.73;1.63;;;;;;;7.65;100.00;95995.88;5022466;28;20400;-81
2024/02/22 05:40:17;;;;;;;2.35;1.83;;;;;;;7.57;100.00;95991.13;5028374;28;20407;-81
2024/02/22 05:42:44;;;;;;;2.17;1.83;;;;;;;7.69;100.00;95995.06;5025212;28;20401;-82
2024/02/22 05:45:10;;;;;;;2.30;2.10;;;;;;;7.68;100.00;95982.94;5030574;28;20407;-81
2024/02/22 05:47:36;;;;;;;3.70;1.87;;;;;;;7.58;100.00;95977.72;5020214;28;20399;-81
2024/02/22 05:50:02;;;;;;;3.03;1.77;;;;;;;7.52;100.00;95983.25;5015598;28;20423;-81
2024/02/22 05:52:30;;;;;;;2.60;1.73;;;;;;;7.48;100.00;95969.81;5016686;28;20422;-80
2024/02/22 05:54:56;;;;;;;2.40;1.77;;;;;;;7.54;100.00;95979.28;5019335;28;20411;-82
2024/02/22 05:57:22;;;;;;;3.28;2.03;;;;;;;7.54;100.00;95968.75;5019930;28;20424;-80
2024/02/22 05:59:48;;;;;;;3.50;2.60;;;;;;;7.51;100.00;95965.88;5023289;28;20396;-79
2024/02/22 06:02:14;;;;;;;4.05;2.30;;;;;;;7.52;100.00;95960.31;5021290;28;20499;-81
2024/02/22 06:04:41;;;;;;;2.90;2.20;;;;;;;7.61;100.00;95960.56;5021785;28;20439;-81
2024/02/22 06:07:07;;;;;;;4.25;2.10;;;;;;;7.63;100.00;95958.47;5022148;28;20747;-81
2024/02/22 06:09:34;;;;;;;3.67;2.00;;;;;;;7.62;100.00;95954.25;5020191;28;20396;-80
2024/02/22 06:12:01;;;;;;;3.97;2.28;;;;;;;7.58;100.00;95951.38;5002199;28;20408;-81
2024/02/22 06:14:27;;;;;;;4.53;3.05;;;;;;;7.72;100.00;95943.72;5018050;28;20401;-80
2024/02/22 06:16:53;;;;;;;2.80;2.03;;;;;;;7.58;100.00;95934.78;5017925;28;20401;-78
2024/02/22 06:19:19;;;;;;;3.77;2.43;;;;;;;7.63;100.00;95940.81;5015197;28;20401;-78
2024/02/22 06:21:46;;;;;;;3.30;2.00;;;;;;;7.70;100.00;95932.66;5016280;28;20413;-79
2024/02/22 06:24:12;;;;;;;3.80;2.00;;;;;;;7.56;100.00;95939.53;5018656;28;20405;-79
2024/02/22 06:26:39;;;;;;;2.95;2.10;;;;;;;7.60;100.00;95938.72;5019001;28;20420;-80
2024/02/22 06:29:05;;;;;;;4.32;2.08;;;;;;;7.61;100.00;95934.25;5019523;28;20405;-80
2024/02/22 06:31:32;;;;;;;5.07;2.30;;;;;;;7.56;100.00;95932.41;5018792;28;20925;-80
2024/02/22 06:33:58;;;;;;;4.43;2.05;;;;;;;7.61;100.00;95939.50;5018978;28;20460;-80
2024/02/22 06:36:24;;;;;;;2.03;1.80;;;;;;;7.57;100.00;95933.22;5017704;28;20396;-79
2024/02/22 06:38:50;;;;;;;3.30;1.90;;;;;;;7.55;100.00;95924.78;5018483;28;20400;-82
2024/02/22 06:41:18;;;;;;;5.50;1.95;;;;;;;7.62;100.00;95926.09;5018038;28;20409;-81
2024/02/22 06:43:45;;;;;;;4.18;2.15;;;;;;;7.69;100.00;95925.78;5018696;28;20403;-80
2024/02/22 06:46:11;;;;;;;3.40;2.20;;;;;;;7.61;100.00;95919.22;5018710;28;20396;-80
2024/02/22 06:48:37;;;;;;;2.63;1.92;;;;;;;7.67;100.00;95922.63;5016664;28;20408;-81
2024/02/22 06:51:04;;;;;;;3.13;2.00;;;;;;;7.65;100.00;95915.03;5017396;28;20417;-81
2024/02/22 06:53:30;;;;;;;2.38;1.98;;;;;;;7.70;100.00;95904.47;5016382;28;20401;-80
2024/02/22 06:55:56;;;;;;;3.88;2.20;;;;;;;7.69;100.00;95908.16;5021750;28;20822;-80
2024/02/22 06:58:22;;;;;;;6.80;2.00;;;;;;;7.63;100.00;95913.69;5017924;28;20417;-80
2024/02/22 07:00:49;;;;;;;4.90;2.25;;;;;;;7.60;100.00;95911.59;5017838;28;20407;-81
2024/02/22 07:03:16;;;;;;;4.72;2.10;;;;;;;7.54;100.00;95905.56;5018444;28;20455;-78
2024/02/22 07:05:43;;;;;;;5.23;2.10;;;;;;;7.57;100.00;95912.16;5017809;28;20840;-81
2024/02/22 07:08:09;;;;;;;3.72;2.00;;;;;;;7.51;100.00;95900.84;5018507;28;20491;-82
2024/02/22 07:10:35;;;;;;;4.53;2.35;;;;;;;7.48;100.00;95896.09;5016475;28;20424;-80
2024/02/22 07:13:01;;;;;;;5.63;2.60;;;;;;;7.46;100.00;95907.94;5018503;28;20455;-78
2024/02/22 07:15:27;;;;;;;4.97;2.83;;;;;;;7.52;100.00;95899.75;5018006;28;20397;-82
2024/02/22 07:17:55;;;;;;;5.15;2.97;;;;;;;7.62;100.00;95899.75;5017924;28;20409;-82
2024/02/22 07:20:21;;;;;;;8.17;3.10;;;;;;;7.53;100.00;95903.19;5018167;28;20440;-82
2024/02/22 07:22:48;;;;;;;7.38;3.05;;;;;;;7.53;100.00;95903.19;5018927;28;20444;-82
2024/02/22 07:25:16;;;;;;;7.00;3.50;;;;;;;7.56;100.00;95905.31;5018077;28;20405;-82
2024/02/22 07:27:42;;;;;;;6.07;3.45;;;;;;;7.56;100.00;95890.28;5018964;28;20393;-79
2024/02/22 07:30:09;;;;;;;10.40;4.00;;;;;;;7.67;100.00;95906.84;5019427;28;20420;-79
2024/02/22 07:32:36;;;;;;;9.37;4.03;;;;;;;7.68;100.00;95909.19;5024832;28;20897;-80
2024/02/22 07:35:05;;;;;;;8.77;4.18;;;;;;;7.73;100.00;95893.41;5026127;28;20392;-76
2024/02/22 07:37:31;;;;;;;8.00;3.85;;;;;;;7.70;100.00;95895.78;5018031;28;20432;-80
2024/02/22 07:39:59;;;;;;;9.95;4.13;;;;;;;7.64;100.00;95895.00;5018358;28;20411;-81
2024/02/22 07:42:26;;;;;;;8.88;4.22;;;;;;;7.71;100.00;95898.16;5016800;28;20401;-81
2024/02/22 07:44:52;;;;;;;11.95;4.40;;;;;;;7.68;100.00;95895.25;5017611;28;20414;-81
2024/02/22 07:47:18;;;;;;;11.60;4.70;;;;;;;7.88;100.00;95889.13;5019227;28;20403;-81
2024/02/22 07:49:44;;;;;;;13.05;4.70;;;;;;;7.73;100.00;95882.06;5018542;28;20396;-81
2024/02/22 07:52:12;;;;;;;8.48;4.30;;;;;;;7.77;100.00;95883.91;5019242;28;20436;-82
2024/02/22 07:54:39;;;;;;;8.90;4.20;;;;;;;7.71;100.00;95874.44;5019268;28;20427;-81
2024/02/22 07:57:06;;;;;;;10.60;4.38;;;;;;;7.69;100.00;95871.28;5018810;28;20408;-81
2024/02/22 07:59:32;;;;;;;8.93;4.10;;;;;;;7.70;100.00;95875.50;5019312;28;20405;-81
2024/02/22 08:01:58;;;;;;;9.67;3.90;;;;;;;7.68;100.00;95867.06;5019970;28;20937;-81
2024/02/22 08:04:26;;;;;;;10.52;3.72;;;;;;;7.61;100.00;95871.84;5020219;28;20415;-80
2024/02/22 08:06:52;;;;;;;8.27;3.78;;;;;;;7.88;100.00;95862.78;5019146;28;20413;-79
2024/02/22 08:09:20;;;;;;;9.15;3.47;;;;;;;7.89;100.00;95869.63;5019509;28;20474;-79
2024/02/22 08:11:46;;;;;;;6.30;2.88;;;;;;;7.84;100.00;95865.16;5023131;28;20809;-79
2024/02/22 08:14:12;;;;;;;9.65;3.30;;;;;;;7.73;100.00;95867.06;5026743;28;20763;-80
2024/02/22 08:16:39;;;;;;;5.82;2.67;;;;;;;7.74;100.00;95871.25;5020145;28;20451;-79
2024/02/22 08:19:05;;;;;;;6.13;2.80;;;;;;;8.04;100.00;95859.78;5018130;28;20877;-80
2024/02/22 08:21:32;;;;;;;5.10;2.20;;;;;;;7.92;100.00;95846.16;5018212;28;20408;-80
2024/02/22 08:23:58;;;;;;;4.47;2.40;;;;;;;7.88;100.00;95839.88;5020776;28;20536;-80
2024/02/22 08:26:26;;;;;;;3.58;1.92;;;;;;;7.87;100.00;95842.75;5022760;28;20409;-80
2024/02/22 08:28:52;;;;;;;3.83;2.00;;;;;;;7.80;100.00;95845.69;5028543;28;20395;-80
2024/02/22 08:31:18;;;;;;;2.47;1.60;;;;;;;7.77;100.00;95838.31;5026080;28;20416;-80
2024/02/22 08:33:47;;;;;;;2.47;1.80;;;;;;;7.78;100.00;95835.44;5031457;28;20407;-80
2024/02/22 08:36:13;;;;;;;5.45;1.63;;;;;;;7.79;100.00;95841.47;5036138;28;20439;-80
2024/02/22 08:38:40;;;;;;;2.63;1.93;;;;;;;7.89;100.00;95820.38;5037372;28;20395;-80
2024/02/22 08:41:06;;;;;;;1.75;1.50;;;;;;;7.84;100.00;95828.28;5038074;28;20399;-80
2024/02/22 08:43:33;;;;;;;1.55;1.42;;;;;;;7.90;100.00;95826.41;5037949;28;20744;-82
2024/02/22 08:46:01;;;;;;;4.20;1.60;;;;;;;7.98;100.00;95826.63;5036831;28;20403;-81
2024/02/22 08:48:27;;;;;;;3.90;1.50;;;;;;;8.02;100.00;95827.66;5037129;28;20801;-81
2024/02/22 08:50:54;;;;;;;3.83;1.30;;;;;;;8.00;100.00;95821.09;5037033;28;20427;-82
2024/02/22 08:53:20;;;;;;;2.22;1.50;;;;;;;7.94;100.00;95816.91;5037134;28;20402;-79
2024/02/22 08:55:47;;;;;;;4.10;1.35;;;;;;;8.13;100.00;95815.19;5037661;28;20494;-80
2024/02/22 08:58:13;;;;;;;1.75;1.38;;;;;;;8.33;100.00;95811.69;5037208;28;20482;-79
2024/02/22 09:00:40;;;;;;;1.45;1.33;;;;;;;8.18;100.00;95804.66;5037066;28;20410;-80
2024/02/22 09:03:06;;;;;;;1.70;1.30;;;;;;;8.57;100.00;95804.63;5037956;28;20410;-80
2024/02/22 09:05:32;;;;;;;1.88;1.38;;;;;;;8.41;100.00;95795.28;5017947;28;20448;-80
2024/02/22 09:07:58;;;;;;;2.67;1.65;;;;;;;8.45;100.00;95791.03;5017216;28;20882;-81
2024/02/22 09:10:25;;;;;;;1.45;1.27;;;;;;;8.37;100.00;95783.69;5015748;28;20416;-79
2024/02/22 09:12:51;;;;;;;1.20;1.10;;;;;;;8.39;100.00;95784.22;5016170;28;20787;-79
2024/02/22 09:15:17;;;;;;;2.85;1.20;;;;;;;8.44;100.00;95782.31;5016899;28;20404;-80
2024/02/22 09:17:45;;;;;;;1.33;1.13;;;;;;;8.43;100.00;95775.47;5017277;28;20433;-80
2024/02/22 09:20:12;;;;;;;1.90;1.10;;;;;;;8.42;100.00;95768.63;5017052;28;20403;-80
2024/02/22 09:22:41;;;;;;;1.88;1.20;;;;;;;8.33;100.00;95756.31;5017139;28;20883;-79
2024/02/22 09:25:07;;;;;;;1.73;1.30;;;;;;;8.32;100.00;95755.53;5017603;28;20415;-80
2024/02/22 09:27:34;;;;;;;1.40;1.30;;;;;;;8.28;100.00;95743.13;5018255;28;20430;-81
2024/02/22 09:30:03;;;;;;;1.50;1.20;;;;;;;8.23;100.00;95746.59;5017608;28;20400;-80
2024/02/22 09:32:30;;;;;;;1.25;1.13;;;;;;;8.23;100.00;95743.97;5014749;28;20867;-81
2024/02/22 09:34:57;;;;;;;1.70;1.40;;;;;;;8.41;100.00;95737.28;5016448;28;20397;-80
2024/02/22 09:37:26;;;;;;;4.03;1.20;;;;;;;8.38;100.00;95743.09;5016656;28;20399;-80
2024/02/22 09:39:52;;;;;;;2.45;1.13;;;;;;;8.39;100.00;95740.19;5017822;28;20400;-81
2024/02/22 09:42:18;;;;;;;1.27;1.00;;;;;;;8.33;100.00;95749.22;5017736;28;20408;-82
2024/02/22 09:44:46;;;;;;;2.88;1.15;;;;;;;8.44;100.00;95737.50;5017102;28;20401;-81
2024/02/22 09:47:14;;;;;;;1.77;1.23;;;;;;;8.59;100.00;95759.50;5018838;28;20747;-80
2024/02/22 09:49:42;;;;;;;1.30;1.10;;;;;;;8.70;100.00;95743.34;5019586;28;20416;-79
2024/02/22 09:52:12;;;;;;;2.90;1.20;;;;;;;8.58;100.00;95737.63;5024110;28;20436;-82
2024/02/22 09:54:39;;;;;;;1.17;1.10;;;;;;;8.50;100.00;95733.75;5015906;28;20411;-77
2024/02/22 09:57:05;;;;;;;1.20;1.10;;;;;;;8.65;100.00;95732.81;5016819;28;20878;-79
2024/02/22 09:59:31;;;;;;;1.23;1.13;;;;;;;8.79;100.00;95741.66;5018322;28;20463;-79
2024/02/22 10:01:57;;;;;;;1.07;1.00;;;;;;;8.93;100.00;95729.38;5018906;28;20877;-82
2024/02/22 10:04:24;;;;;;;1.10;1.00;;;;;;;8.91;100.00;95709.59;5019664;28;20681;-80
2024/02/22 10:06:58;;;;;;;1.42;1.10;;;;;;;9.00;100.00;95715.84;5002273;28;20489;-82
2024/02/22 10:09:27;;;;;;;1.80;1.10;;;;;;;9.09;100.00;95711.53;5024400;28;20408;-81
2024/02/22 10:11:53;;;;;;;2.30;1.10;;;;;;;9.41;100.00;95700.28;5012958;28;20474;-80
2024/02/22 10:14:19;;;;;;;1.00;1.00;;;;;;;9.57;100.00;95709.56;5019941;28;20405;-81
2024/02/22 10:16:45;;;;;;;0.90;0.90;;;;;;;9.74;100.00;95703.00;5019609;28;20495;-80
2024/02/22 10:19:13;;;;;;;0.90;0.90;;;;;;;9.80;100.00;95688.63;5018919;28;20409;-80
2024/02/22 10:21:39;;;;;;;1.20;0.90;;;;;;;9.62;100.00;95687.59;5021104;28;20424;-80
2024/02/22 10:24:06;;;;;;;2.40;1.00;;;;;;;9.43;100.00;95690.22;5019069;28;20405;-81
2024/02/22 10:26:34;;;;;;;1.20;1.10;;;;;;;9.23;100.00;95688.63;5018400;28;20412;-81
2024/02/22 10:29:07;;;;;;;1.13;1.02;;;;;;;9.68;100.00;95689.09;5019660;28;20400;-80
2024/02/22 10:31:41;;;;;;;1.38;1.25;;;;;;;9.81;100.00;95677.00;5019043;28;20424;-80
2024/02/22 10:34:09;;;;;;;0.93;0.93;;;;;;;9.48;100.00;95681.44;5027732;28;20468;-81
2024/02/22 10:36:37;;;;;;;1.17;0.95;;;;;;;9.50;100.00;95671.38;5019588;28;20421;-81
2024/02/22 10:39:03;;;;;;;2.13;1.10;;;;;;;9.45;100.00;95676.72;5020048;28;20396;-81
2024/02/22 10:41:29;;;;;;;1.15;1.05;;;;;;;9.32;100.00;95678.22;5020067;28;20472;-81
2024/02/22 10:43:57;;;;;;;2.00;1.20;;;;;;;9.44;100.00;95664.59;5021026;28;20889;-81
2024/02/22 10:46:26;;;;;;;1.10;1.00;;;;;;;9.46;100.00;95665.09;5021996;28;20397;-81
2024/02/22 10:48:53;;;;;;;2.00;1.00;;;;;;;9.27;100.00;95665.09;5031159;28;20401;-79
2024/02/22 10:51:21;;;;;;;1.10;1.00;;;;;;;9.16;100.00;95658.38;5032979;28;20512;-79
2024/02/22 10:53:54;;;;;;;1.80;1.10;;;;;;;9.13;100.00;95658.94;5022668;28;20529;-81
2024/02/22 10:56:23;;;;;;;1.38;1.10;;;;;;;9.12;100.00;95660.78;5018490;28;20400;-81
2024/02/22 10:58:51;;;;;;;1.20;1.10;;;;;;;9.26;100.00;95647.66;5021018;28;20743;-80
2024/02/22 11:01:21;;;;;;;1.33;1.20;;;;;;;9.19;100.00;95649.88;5019548;28;20401;-81
2024/02/22 11:03:47;;;;;;;1.00;1.00;;;;;;;9.15;100.00;95651.53;5019366;28;20411;-82
2024/02/22 11:06:14;;;;;;;2.30;1.00;;;;;;;9.17;100.00;95652.78;5018698;28;20409;-79
2024/02/22 11:08:48;;;;;;;3.03;1.20;;;;;;;8.99;100.00;95648.28;5017616;28;21085;-79
2024/02/22 11:11:25;;;;;;;1.30;1.20;;;;;;;8.92;100.00;95643.34;5014156;28;20424;-81
2024/02/22 11:13:56;;;;;;;3.65;1.05;;;;;;;8.96;100.00;95633.00;5016372;28;20429;-80
2024/02/22 11:16:32;;;;;;;1.17;1.10;;;;;;;8.88;100.00;95628.34;5001116;28;20401;-80
2024/02/22 11:19:09;;;;;;;1.30;1.20;;;;;;;8.81;100.00;95638.47;5016277;28;20908;-80
2024/02/22 11:21:36;;;;;;;3.33;1.50;;;;;;;8.83;100.00;95626.56;5017255;28;20462;-80
2024/02/22 11:24:09;;;;;;;1.60;1.20;;;;;;;8.94;100.00;95619.34;5018548;28;20439;-79
2024/02/22 11:26:36;;;;;;;1.95;1.10;;;;;;;8.88;100.00;95618.59;5016510;28;20393;-80
2024/02/22 11:29:02;;;;;;;1.35;1.10;;;;;;;8.87;100.00;95616.25;5015903;28;20482;-79
2024/02/22 11:31:30;;;;;;;1.20;1.00;;;;;;;8.86;100.00;95602.28;5019273;28;20420;-80
2024/02/22 11:33:58;;;;;;;1.00;1.00;;;;;;;8.77;100.00;95600.53;5021346;28;20411;-80